Ephraim, Utah
Current Conditions -  °F | °C
As of 12:53 AM on Thursday 29 Jan 2015 (Local Time) from KPUC Reporting Station
Few Clouds Few Clouds  
Wind Chill: 36°   Ceiling: Unl
Heat Index: 36°   Visibility: 10mi
Dew Point: 25°   Wind: 3mph
Humidity: 64%   Direction: 340°NNW
Pressure: 30.31"   Gusts: NA
Location:  39.36°N, 111.59°W
Report Text: KPUC 290753Z AUTO 34003KT 10SM FEW048 02/M04 A3031 RMK AO2 SLP275 T00221039
Loading
Personal Weather Stations






























Interactive Weather Map New forecast layout! Learn more

10-Day Weather Forecast

Advertisements
Track Severe Weather on mobile